createdAt,value
2022-12-01T00:03:29.396Z,8.41
2022-12-01T00:08:31.347Z,8.46
2022-12-01T00:13:34.142Z,8.32
2022-12-01T00:18:35.725Z,8.33
2022-12-01T00:23:37.472Z,8.42
2022-12-01T00:28:39.257Z,8.44
2022-12-01T00:33:40.768Z,8.42
2022-12-01T00:38:42.414Z,8.44
2022-12-01T00:43:43.853Z,8.39
2022-12-01T00:48:45.327Z,8.34
2022-12-01T00:53:47.696Z,8.33
2022-12-01T00:58:49.295Z,8.31
2022-12-01T01:03:50.738Z,8.33
2022-12-01T01:08:52.324Z,8.33
2022-12-01T01:13:53.823Z,8.09
2022-12-01T01:18:55.279Z,8.10
2022-12-01T01:23:56.707Z,8.16
2022-12-01T01:29:00.680Z,8.23
2022-12-01T01:34:02.771Z,8.29
2022-12-01T01:39:04.303Z,8.24
2022-12-01T01:44:43.927Z,8.23
2022-12-01T01:49:45.613Z,8.25
2022-12-01T01:54:51.065Z,8.14
2022-12-01T01:59:58.301Z,8.04
2022-12-01T02:05:02.552Z,8.13
2022-12-01T02:10:05.436Z,8.25
2022-12-01T02:15:12.908Z,8.25
2022-12-01T02:20:26.424Z,8.24
2022-12-01T02:26:02.100Z,8.34
2022-12-01T02:31:18.856Z,8.25
2022-12-01T02:36:45.362Z,8.13
2022-12-01T02:41:52.606Z,8.14
2022-12-01T02:47:09.327Z,8.16
2022-12-01T02:52:14.576Z,8.14
2022-12-01T02:57:16.974Z,8.23
2022-12-01T03:02:37.324Z,8.25
2022-12-01T03:08:00.184Z,8.22
2022-12-01T03:13:09.081Z,8.17
2022-12-01T03:18:32.802Z,8.19
2022-12-01T03:23:38.551Z,8.19
2022-12-01T03:28:43.279Z,8.16
2022-12-01T03:33:55.344Z,8.14
2022-12-01T03:39:01.540Z,8.20
2022-12-01T03:44:20.628Z,8.26
2022-12-01T03:49:23.406Z,8.22
2022-12-01T03:54:52.603Z,8.21
2022-12-01T03:59:54.542Z,8.22
2022-12-01T04:04:56.091Z,8.23
2022-12-01T04:09:57.594Z,8.20
2022-12-01T04:15:01.837Z,8.21
2022-12-01T04:20:04.378Z,8.23
2022-12-01T04:25:07.148Z,8.20
2022-12-01T04:30:09.082Z,8.10
2022-12-01T04:35:12.570Z,8.18
2022-12-01T04:40:14.211Z,8.16
2022-12-01T04:45:15.796Z,8.14
2022-12-01T04:50:17.326Z,8.14
2022-12-01T04:55:18.768Z,8.18
2022-12-01T05:00:20.352Z,8.15
2022-12-01T05:05:21.899Z,8.12
2022-12-01T05:10:23.377Z,8.01
2022-12-01T05:15:24.878Z,8.05
2022-12-01T05:20:26.491Z,8.08
2022-12-01T05:25:27.908Z,8.08
2022-12-01T05:30:29.518Z,8.10
2022-12-01T05:35:33.672Z,7.99
2022-12-01T05:40:36.241Z,8.15
2022-12-01T05:45:37.733Z,8.10
2022-12-01T05:50:39.996Z,8.14
2022-12-01T05:55:41.991Z,8.09
2022-12-01T06:00:45.956Z,8.19
2022-12-01T06:05:47.852Z,8.02
2022-12-01T06:10:49.512Z,7.71
2022-12-01T06:16:02.527Z,7.69
2022-12-01T06:21:05.920Z,7.53
2022-12-01T06:26:07.938Z,7.37
2022-12-01T06:31:09.525Z,7.33
2022-12-01T06:36:11.033Z,7.30
2022-12-01T06:41:12.521Z,7.28
2022-12-01T06:46:14.045Z,7.31
2022-12-01T06:51:15.552Z,7.24
2022-12-01T06:56:16.996Z,7.13
2022-12-01T07:01:19.259Z,7.31
2022-12-01T07:06:20.858Z,7.13
2022-12-01T07:11:22.317Z,7.05
2022-12-01T07:16:23.927Z,7.08
2022-12-01T07:21:25.529Z,7.12
2022-12-01T07:26:27.008Z,7.23
2022-12-01T07:31:28.493Z,7.07
2022-12-01T07:36:31.856Z,6.95
2022-12-01T07:41:34.053Z,6.80
2022-12-01T07:46:35.540Z,7.02
2022-12-01T07:51:37.143Z,6.95
2022-12-01T07:56:38.586Z,6.98
2022-12-01T08:01:44.326Z,6.90
2022-12-01T08:06:46.297Z,6.89
2022-12-01T08:11:47.799Z,6.93
2022-12-01T08:16:49.380Z,6.85
2022-12-01T08:21:50.900Z,6.96
2022-12-01T08:26:52.389Z,7.05
2022-12-01T08:31:53.919Z,6.90
2022-12-01T08:36:55.362Z,7.01
2022-12-01T08:41:56.835Z,6.94
2022-12-01T08:46:58.314Z,6.82
2022-12-01T08:51:59.866Z,6.76
2022-12-01T08:57:01.335Z,6.81
2022-12-01T09:02:06.917Z,6.85
2022-12-01T09:07:10.711Z,6.95
2022-12-01T09:12:12.883Z,6.72
2022-12-01T09:17:14.738Z,6.76
2022-12-01T09:22:16.387Z,6.29
2022-12-01T09:27:17.876Z,6.96
2022-12-01T09:32:19.303Z,6.95
2022-12-01T09:37:20.802Z,6.83
2022-12-01T09:42:22.680Z,6.95
2022-12-01T09:47:29.869Z,6.83
2022-12-01T09:52:41.933Z,6.82
2022-12-01T09:57:46.724Z,6.91
2022-12-01T10:03:17.694Z,6.80
2022-12-01T10:08:27.005Z,6.77
2022-12-01T10:13:29.114Z,6.70
2022-12-01T10:18:54.435Z,6.71
2022-12-01T10:24:14.440Z,6.66
2022-12-01T10:29:20.775Z,6.58
2022-12-01T10:34:29.203Z,6.52
2022-12-01T10:39:39.548Z,6.50
2022-12-01T10:44:42.170Z,6.60
2022-12-01T10:49:43.704Z,6.60
2022-12-01T10:54:45.153Z,6.58
2022-12-01T10:59:55.771Z,6.70
2022-12-01T11:05:03.213Z,6.82
2022-12-01T11:10:23.881Z,6.90
2022-12-01T11:15:32.558Z,7.03
2022-12-01T11:20:35.421Z,7.09
2022-12-01T11:25:37.113Z,6.99
2022-12-01T11:30:38.625Z,7.12
2022-12-01T11:35:47.764Z,7.15
2022-12-01T11:40:54.808Z,7.07
2022-12-01T11:46:00.064Z,7.02
2022-12-01T11:51:09.936Z,7.08
2022-12-01T11:56:20.335Z,7.26
2022-12-01T12:01:36.091Z,7.29
2022-12-01T12:07:15.193Z,7.24
2022-12-01T12:12:34.344Z,7.36
2022-12-01T12:17:42.824Z,7.47
2022-12-01T12:23:21.856Z,7.37
2022-12-01T12:28:23.224Z,7.29
2022-12-01T12:33:32.043Z,7.19
2022-12-01T12:39:00.829Z,7.57
2022-12-01T12:44:35.382Z,7.66
2022-12-01T12:49:44.918Z,7.46
2022-12-01T12:54:54.902Z,7.31
2022-12-01T13:00:02.479Z,7.60
2022-12-01T13:05:16.666Z,7.49
2022-12-01T13:10:29.282Z,7.72
2022-12-01T13:15:33.896Z,7.82
2022-12-01T13:20:35.607Z,7.96
2022-12-01T13:25:40.127Z,7.82
2022-12-01T13:30:41.655Z,7.55
2022-12-01T13:35:43.155Z,7.90
2022-12-01T13:40:44.737Z,7.58
2022-12-01T13:45:47.930Z,7.73
2022-12-01T13:51:01.031Z,7.83
2022-12-01T13:56:39.351Z,7.66
2022-12-01T14:01:44.179Z,7.65
2022-12-01T14:07:07.442Z,7.45
2022-12-01T14:12:11.689Z,7.60
2022-12-01T14:17:33.692Z,7.53
2022-12-01T14:22:41.371Z,7.36
2022-12-01T14:27:43.928Z,7.34
2022-12-01T14:32:45.373Z,7.42
2022-12-01T14:37:49.518Z,7.46
2022-12-01T14:42:53.791Z,7.43
2022-12-01T14:48:04.741Z,7.29
2022-12-01T14:53:23.969Z,7.27
2022-12-01T14:58:32.140Z,7.31
2022-12-01T15:03:38.131Z,7.35
2022-12-01T15:08:45.968Z,7.24
2022-12-01T15:13:54.381Z,7.50
2022-12-01T15:18:59.161Z,7.33
2022-12-01T15:24:03.088Z,7.22
2022-12-01T15:29:14.434Z,7.17
2022-12-01T15:34:26.763Z,7.09
2022-12-01T15:39:35.520Z,7.16
2022-12-01T15:44:37.046Z,7.09
2022-12-01T15:49:48.759Z,7.32
2022-12-01T15:54:50.817Z,7.06
2022-12-01T15:59:56.711Z,7.04
2022-12-01T16:05:17.366Z,7.15
2022-12-01T16:10:45.083Z,6.78
2022-12-01T16:15:46.509Z,7.06
2022-12-01T16:20:47.934Z,6.98
2022-12-01T16:25:49.483Z,6.90
2022-12-01T16:30:52.440Z,6.88
2022-12-01T16:35:54.785Z,6.94
2022-12-01T16:41:01.047Z,6.78
2022-12-01T16:46:06.230Z,7.06
2022-12-01T16:51:07.930Z,6.96
2022-12-01T16:56:13.206Z,6.93
2022-12-01T17:01:14.643Z,6.91
2022-12-01T17:06:18.797Z,6.98
2022-12-01T17:11:20.249Z,6.79
2022-12-01T17:16:21.708Z,6.95
2022-12-01T17:21:23.249Z,6.85
2022-12-01T17:26:24.760Z,6.82
2022-12-01T17:31:26.393Z,6.83
2022-12-01T17:36:27.884Z,6.83
2022-12-01T17:41:29.408Z,6.73
2022-12-01T17:46:31.868Z,6.82
2022-12-01T17:51:33.353Z,6.83
2022-12-01T17:56:34.915Z,6.84
2022-12-01T18:01:36.420Z,6.81
2022-12-01T18:06:38.003Z,6.85
2022-12-01T18:11:39.509Z,6.89
2022-12-01T18:16:40.936Z,6.87
2022-12-01T18:21:42.414Z,6.76
2022-12-01T18:26:44.120Z,6.86
2022-12-01T18:31:45.859Z,6.75
2022-12-01T18:36:47.592Z,6.81
2022-12-01T18:41:49.331Z,6.66
2022-12-01T18:46:50.882Z,6.65
2022-12-01T18:51:52.359Z,6.61
2022-12-01T18:56:53.798Z,6.60
2022-12-01T19:01:55.254Z,6.62
2022-12-01T19:06:56.680Z,6.59
2022-12-01T19:11:58.147Z,6.61
2022-12-01T19:16:59.567Z,6.74
2022-12-01T19:22:01.031Z,6.53
2022-12-01T19:27:02.450Z,6.60
2022-12-01T19:32:03.988Z,6.71
2022-12-01T19:37:05.372Z,6.61
2022-12-01T19:42:07.000Z,6.65
2022-12-01T19:47:08.410Z,6.69
2022-12-01T19:52:09.852Z,6.61
2022-12-01T19:57:11.382Z,6.68
2022-12-01T20:02:13.205Z,6.69
2022-12-01T20:07:14.638Z,6.87
2022-12-01T20:12:16.156Z,6.70
2022-12-01T20:17:17.750Z,6.69
2022-12-01T20:22:19.202Z,6.55
2022-12-01T20:27:20.723Z,6.53
2022-12-01T20:32:23.777Z,6.60
2022-12-01T20:37:25.420Z,6.59
2022-12-01T20:42:26.919Z,6.78
2022-12-01T20:47:28.377Z,6.65
2022-12-01T20:52:30.819Z,6.49
2022-12-01T20:57:32.460Z,6.75
2022-12-01T21:02:33.931Z,6.69
2022-12-01T21:07:35.539Z,6.72
2022-12-01T21:12:38.352Z,6.78
2022-12-01T21:17:42.481Z,6.58
2022-12-01T21:22:45.702Z,6.64
2022-12-01T21:27:47.788Z,6.61
2022-12-01T21:32:49.594Z,6.53
2022-12-01T21:37:58.196Z,6.65
2022-12-01T21:43:12.268Z,6.61
2022-12-01T21:48:19.752Z,6.61
2022-12-01T21:53:22.290Z,6.83
2022-12-01T21:58:30.430Z,6.69
2022-12-01T22:03:37.354Z,6.53
2022-12-01T22:08:43.053Z,6.70
2022-12-01T22:14:13.316Z,6.95
2022-12-01T22:19:14.693Z,6.68
2022-12-01T22:24:23.602Z,6.87
2022-12-01T22:29:25.081Z,6.62
2022-12-01T22:34:26.506Z,6.63
2022-12-01T22:39:32.689Z,6.69
2022-12-01T22:44:34.303Z,6.73
2022-12-01T22:49:35.775Z,6.53
2022-12-01T22:54:44.700Z,6.69
2022-12-01T22:59:46.152Z,6.76
2022-12-01T23:04:49.387Z,6.78
2022-12-01T23:09:51.307Z,6.80
2022-12-01T23:14:55.079Z,6.69
2022-12-01T23:20:19.727Z,6.62
2022-12-01T23:25:21.798Z,6.58
2022-12-01T23:30:23.336Z,6.57
2022-12-01T23:35:24.881Z,6.56
2022-12-01T23:40:31.239Z,6.65
2022-12-01T23:45:33.081Z,6.55
2022-12-01T23:50:34.604Z,6.69
2022-12-01T23:55:36.020Z,6.53
